Time;durP1;ratioP1;P1;durP2;ratioP2;P2;SDS_P1;SDS_P2;PMS_P1;PMS_P2;Temp;Humidity;BMP_temperature;BMP_pressure;BME280_temperature;BME280_humidity;BME280_pressure;Samples;Min_cycle;Max_cycle;Signal;HPM_P1;HPM_P2
2022/04/30 00:00:11;;;;;;;25.70;23.10;;;11.70;99.90;;;;;;5023647;28;20045;-75
2022/04/30 00:02:40;;;;;;;25.98;23.52;;;11.60;99.90;;;;;;5025236;28;20033;-76
2022/04/30 00:05:07;;;;;;;29.27;26.10;;;11.60;99.90;;;;;;5015386;28;20490;-75
2022/04/30 00:07:33;;;;;;;29.50;24.33;;;11.60;99.90;;;;;;5020596;28;20041;-75
2022/04/30 00:10:00;;;;;;;26.13;23.38;;;11.60;99.90;;;;;;5029262;28;20033;-75
2022/04/30 00:12:26;;;;;;;26.98;24.05;;;11.50;99.90;;;;;;5026856;28;20029;-75
2022/04/30 00:14:54;;;;;;;27.88;24.65;;;11.50;99.90;;;;;;5029189;28;20046;-77
2022/04/30 00:17:20;;;;;;;28.92;25.42;;;11.50;99.90;;;;;;5029475;28;20101;-75
2022/04/30 00:19:46;;;;;;;28.83;25.92;;;11.40;99.90;;;;;;5022988;28;20236;-75
2022/04/30 00:22:13;;;;;;;31.83;26.60;;;11.30;99.90;;;;;;5033380;28;20470;-75
2022/04/30 00:24:39;;;;;;;29.00;26.08;;;11.30;99.90;;;;;;5050864;28;20049;-75
2022/04/30 00:27:05;;;;;;;29.77;26.77;;;11.30;99.90;;;;;;5051637;28;20029;-75
2022/04/30 00:29:32;;;;;;;30.60;27.55;;;11.20;99.90;;;;;;5034123;28;20034;-75
2022/04/30 00:32:03;;;;;;;29.48;26.65;;;11.20;99.90;;;;;;5051169;28;20044;-75
2022/04/30 00:34:30;;;;;;;29.15;26.15;;;11.10;99.90;;;;;;5054432;28;20025;-75
2022/04/30 00:36:58;;;;;;;38.53;28.33;;;11.10;99.90;;;;;;5052863;28;20049;-75
2022/04/30 00:39:24;;;;;;;35.30;28.13;;;11.10;99.90;;;;;;5049210;28;20029;-75
2022/04/30 00:41:51;;;;;;;30.60;25.45;;;11.00;99.90;;;;;;5053213;28;20033;-76
2022/04/30 00:44:18;;;;;;;30.45;27.27;;;11.00;99.90;;;;;;5051423;28;20037;-74
2022/04/30 00:46:45;;;;;;;30.33;27.17;;;11.00;99.90;;;;;;5053637;28;20395;-75
2022/04/30 00:49:11;;;;;;;30.58;27.02;;;10.90;99.90;;;;;;5043150;28;20029;-74
2022/04/30 00:51:39;;;;;;;30.50;27.40;;;10.90;99.90;;;;;;5048436;28;20477;-75
2022/04/30 00:54:07;;;;;;;47.05;28.63;;;10.90;99.90;;;;;;5050472;28;20040;-76
2022/04/30 00:56:33;;;;;;;33.30;27.65;;;10.90;99.90;;;;;;5038265;28;20040;-74
2022/04/30 00:59:06;;;;;;;34.38;28.10;;;10.80;99.90;;;;;;5068036;28;20025;-75
2022/04/30 01:01:35;;;;;;;42.10;30.20;;;10.70;99.90;;;;;;5054109;28;20032;-75
2022/04/30 01:04:16;;;;;;;;;;;10.70;99.90;;;;;;5050992;28;20033;-76
2022/04/30 01:07:07;;;;;;;46.38;30.65;;;10.60;99.90;;;;;;5049563;28;19909;-74
2022/04/30 01:09:36;;;;;;;33.75;30.35;;;10.60;99.90;;;;;;5052267;28;20033;-75
2022/04/30 01:12:06;;;;;;;34.92;31.27;;;10.60;99.90;;;;;;5048716;28;20036;-75
2022/04/30 01:14:34;;;;;;;37.10;33.50;;;10.60;99.90;;;;;;5051734;28;20029;-75
2022/04/30 01:17:04;;;;;;;33.75;30.17;;;10.60;99.90;;;;;;5048881;28;20053;-74
2022/04/30 01:19:33;;;;;;;;;;;10.50;99.90;;;;;;5052480;28;20041;-75
2022/04/30 01:22:01;;;;;;;37.10;31.95;;;10.50;99.90;;;;;;5032995;28;20265;-74
2022/04/30 01:24:29;;;;;;;33.13;29.90;;;10.50;99.90;;;;;;5048089;28;20041;-74
2022/04/30 01:26:57;;;;;;;36.72;31.75;;;10.50;99.90;;;;;;5049885;28;20041;-75
2022/04/30 01:29:24;;;;;;;35.45;31.73;;;10.50;99.90;;;;;;5046989;28;20041;-75
2022/04/30 01:37:25;;;;;;;35.70;31.83;;;10.50;99.90;;;;;;5052143;28;20052;-75
2022/04/30 01:39:57;;;;;;;38.25;33.03;;;10.40;99.90;;;;;;5047014;28;20036;-77
2022/04/30 01:42:29;;;;;;;36.17;31.92;;;10.40;99.90;;;;;;5047598;28;20025;-74
2022/04/30 01:44:58;;;;;;;34.70;31.13;;;10.50;99.90;;;;;;5049307;28;20036;-77
2022/04/30 01:47:25;;;;;;;35.05;31.30;;;10.50;99.90;;;;;;5049198;28;20048;-75
2022/04/30 01:49:52;;;;;;;38.40;32.03;;;10.40;99.90;;;;;;5050748;28;20036;-77
2022/04/30 01:52:18;;;;;;;36.92;33.60;;;10.40;99.90;;;;;;5049190;28;20029;-74
2022/04/30 01:54:45;;;;;;;36.15;32.42;;;10.40;99.90;;;;;;5028714;28;20033;-76
2022/04/30 01:57:12;;;;;;;35.42;31.60;;;10.40;99.90;;;;;;5052950;28;20219;-74
2022/04/30 01:59:39;;;;;;;35.45;32.10;;;10.30;99.90;;;;;;5048801;28;20029;-75
2022/04/30 02:02:06;;;;;;;38.85;34.33;;;10.20;99.90;;;;;;5048753;28;20045;-75
2022/04/30 02:04:35;;;;;;;37.15;33.55;;;10.20;99.90;;;;;;5045763;28;20038;-75
2022/04/30 02:07:02;;;;;;;37.17;33.53;;;10.30;99.90;;;;;;5042284;28;20037;-75
2022/04/30 02:09:30;;;;;;;39.13;35.08;;;10.20;99.90;;;;;;5051540;28;20024;-75
2022/04/30 02:12:01;;;;;;;40.03;36.05;;;10.20;99.90;;;;;;5044990;28;20030;-76
2022/04/30 02:14:29;;;;;;;;;;;10.20;99.90;;;;;;5051526;28;20029;-75
2022/04/30 02:16:55;;;;;;;39.30;35.25;;;10.20;99.90;;;;;;5045593;28;19917;-76
2022/04/30 02:19:22;;;;;;;38.90;35.20;;;10.10;99.90;;;;;;5051607;28;20041;-75
2022/04/30 02:21:49;;;;;;;44.38;39.88;;;10.10;99.90;;;;;;5050072;28;20092;-76
2022/04/30 02:24:15;;;;;;;45.17;40.75;;;10.00;99.90;;;;;;5031365;28;20049;-76
2022/04/30 02:26:43;;;;;;;49.50;44.38;;;10.00;99.90;;;;;;5008977;28;20034;-76
2022/04/30 02:29:10;;;;;;;51.05;43.60;;;10.00;99.90;;;;;;5012346;28;20044;-77
2022/04/30 02:31:36;;;;;;;50.95;45.50;;;9.90;99.90;;;;;;5024573;28;20048;-77
2022/04/30 02:34:02;;;;;;;49.22;44.00;;;9.90;99.90;;;;;;5030834;28;20037;-76
2022/04/30 02:36:30;;;;;;;49.85;44.75;;;9.90;99.90;;;;;;5022545;28;20050;-76
2022/04/30 02:38:57;;;;;;;55.75;46.92;;;9.90;99.90;;;;;;5013399;28;20041;-77
2022/04/30 02:41:24;;;;;;;50.65;45.28;;;9.80;99.90;;;;;;5030335;28;20391;-76
2022/04/30 02:43:51;;;;;;;49.92;44.72;;;9.80;99.90;;;;;;5024654;28;20034;-78
2022/04/30 02:46:18;;;;;;;52.15;46.80;;;9.80;99.90;;;;;;5021046;28;20030;-76
2022/04/30 02:48:44;;;;;;;43.05;39.30;;;9.70;99.90;;;;;;4994405;28;20045;-77
2022/04/30 02:51:10;;;;;;;48.13;43.17;;;9.70;99.90;;;;;;5022825;28;20033;-77
2022/04/30 02:53:37;;;;;;;49.25;44.47;;;9.70;99.90;;;;;;5013027;28;20038;-78
2022/04/30 02:56:05;;;;;;;52.15;46.88;;;9.70;99.90;;;;;;5028673;28;20037;-75
2022/04/30 03:01:19;;;;;;;47.78;42.65;;;9.70;99.90;;;;;;5028048;28;20029;-76
2022/04/30 03:04:20;;;;;;;45.53;40.67;;;9.70;99.90;;;;;;5015172;28;20041;-77
2022/04/30 03:06:47;;;;;;;50.22;44.28;;;9.60;99.90;;;;;;5015473;28;20033;-76
2022/04/30 03:09:13;;;;;;;43.47;39.30;;;9.60;99.90;;;;;;5030569;28;20052;-76
2022/04/30 03:11:39;;;;;;;46.28;37.38;;;9.60;99.90;;;;;;5033689;28;20037;-77
2022/04/30 03:14:05;;;;;;;42.88;38.50;;;9.50;99.90;;;;;;5010785;28;20058;-77
2022/04/30 03:22:01;;;;;;;35.50;32.22;;;9.50;99.90;;;;;;5014166;28;20037;-76
2022/04/30 03:24:29;;;;;;;37.70;34.25;;;9.40;99.90;;;;;;5055096;28;20048;-76
2022/04/30 03:26:55;;;;;;;37.50;33.72;;;9.30;99.90;;;;;;5054136;28;20033;-77
2022/04/30 03:29:23;;;;;;;38.60;34.90;;;9.30;99.90;;;;;;5036339;28;20041;-80
2022/04/30 03:31:49;;;;;;;39.63;35.58;;;9.20;99.90;;;;;;5049040;28;20025;-76
2022/04/30 03:34:16;;;;;;;38.78;32.53;;;9.20;99.90;;;;;;5016439;28;20037;-77
2022/04/30 03:36:43;;;;;;;38.47;34.38;;;9.20;99.90;;;;;;5049608;28;20044;-77
2022/04/30 03:39:09;;;;;;;39.20;35.58;;;9.10;99.90;;;;;;5036715;28;20399;-76
2022/04/30 03:41:36;;;;;;;40.35;36.35;;;9.10;99.90;;;;;;5045218;28;20363;-78
2022/04/30 03:44:03;;;;;;;38.47;34.70;;;9.10;99.90;;;;;;5051591;28;20465;-76
2022/04/30 03:46:29;;;;;;;42.83;36.00;;;9.00;99.90;;;;;;5052597;28;20037;-79
2022/04/30 03:48:56;;;;;;;40.55;36.55;;;9.00;99.90;;;;;;5054228;28;20029;-79
2022/04/30 03:51:23;;;;;;;41.97;38.00;;;9.00;99.90;;;;;;5032849;28;20060;-78
2022/04/30 03:53:50;;;;;;;43.38;38.88;;;9.00;99.90;;;;;;5048290;28;20037;-82
2022/04/30 03:56:17;;;;;;;41.20;37.15;;;9.00;99.90;;;;;;5052689;28;20049;-82
2022/04/30 03:58:46;;;;;;;41.42;37.25;;;8.90;99.90;;;;;;5050846;28;20492;-77
2022/04/30 04:01:13;;;;;;;44.00;39.33;;;8.90;99.90;;;;;;5052485;28;20025;-79
2022/04/30 04:03:42;;;;;;;43.65;39.65;;;8.90;99.90;;;;;;5048255;28;20029;-79
2022/04/30 04:06:09;;;;;;;50.22;41.60;;;8.90;99.90;;;;;;5035358;28;20056;-76
2022/04/30 04:08:35;;;;;;;44.70;40.13;;;8.90;99.90;;;;;;5054172;28;20040;-75
2022/04/30 04:11:03;;;;;;;45.17;40.50;;;8.90;99.90;;;;;;5052236;28;20037;-74
2022/04/30 04:18:59;;;;;;;47.40;43.20;;;8.90;99.90;;;;;;5047895;28;20063;-75
2022/04/30 04:21:25;;;;;;;49.58;44.65;;;8.90;99.90;;;;;;5055757;28;20029;-76
2022/04/30 04:26:36;;;;;;;50.97;45.65;;;8.80;99.90;;;;;;5055182;28;20041;-75
2022/04/30 04:29:02;;;;;;;53.97;47.20;;;8.90;99.90;;;;;;5054004;28;20036;-75
2022/04/30 04:31:28;;;;;;;59.63;49.90;;;8.90;99.90;;;;;;5033695;28;20041;-74
2022/04/30 04:33:55;;;;;;;52.08;47.15;;;8.80;99.90;;;;;;5052721;28;20040;-81
2022/04/30 04:36:21;;;;;;;55.22;49.80;;;8.90;99.90;;;;;;5052847;28;20037;-75
2022/04/30 04:38:47;;;;;;;52.78;47.30;;;8.80;99.90;;;;;;5050199;28;20045;-75
2022/04/30 04:41:13;;;;;;;53.13;48.08;;;8.80;99.90;;;;;;5051556;28;20039;-75
2022/04/30 04:43:40;;;;;;;51.83;46.72;;;8.80;99.90;;;;;;5052572;28;20394;-81
2022/04/30 04:46:06;;;;;;;54.95;49.55;;;8.80;99.90;;;;;;5051933;28;20040;-75
2022/04/30 04:48:34;;;;;;;56.22;50.78;;;8.80;99.90;;;;;;5050794;28;20044;-76
2022/04/30 04:51:01;;;;;;;57.05;51.22;;;8.80;99.90;;;;;;5046164;28;20036;-74
2022/04/30 04:53:27;;;;;;;56.92;51.10;;;8.80;99.90;;;;;;5042502;28;20037;-74
2022/04/30 04:55:53;;;;;;;57.97;51.67;;;8.80;99.90;;;;;;5051731;28;20047;-81
2022/04/30 04:58:19;;;;;;;61.28;54.67;;;8.80;99.90;;;;;;5049122;28;20033;-78
2022/04/30 05:00:46;;;;;;;60.67;54.72;;;8.80;99.90;;;;;;5051120;28;20722;-75
2022/04/30 05:03:13;;;;;;;60.10;54.17;;;8.90;99.90;;;;;;5052299;28;20032;-76
2022/04/30 05:05:39;;;;;;;56.65;50.53;;;8.80;99.90;;;;;;5051875;28;20041;-76
2022/04/30 05:08:05;;;;;;;56.17;50.28;;;8.80;99.90;;;;;;5048252;28;20049;-75
2022/04/30 05:10:31;;;;;;;57.50;51.35;;;8.80;99.90;;;;;;5052166;28;20029;-75
2022/04/30 05:12:57;;;;;;;58.13;52.42;;;8.80;99.90;;;;;;5054293;28;20029;-75
2022/04/30 05:15:24;;;;;;;60.97;54.53;;;8.80;99.90;;;;;;5051189;28;20033;-76
2022/04/30 05:17:50;;;;;;;63.03;56.63;;;8.80;99.90;;;;;;5036079;28;20406;-75
2022/04/30 05:20:16;;;;;;;63.78;57.38;;;8.90;99.90;;;;;;5045157;28;20028;-78
2022/04/30 05:22:42;;;;;;;61.90;55.58;;;8.80;99.90;;;;;;5043585;28;20045;-76
2022/04/30 05:25:08;;;;;;;60.85;55.00;;;8.90;99.90;;;;;;5035132;28;20049;-75
2022/04/30 05:27:34;;;;;;;64.18;57.67;;;8.90;99.90;;;;;;5053340;28;20040;-75
2022/04/30 05:30:01;;;;;;;63.25;56.53;;;8.90;99.90;;;;;;5051709;28;20476;-76
2022/04/30 05:32:27;;;;;;;61.03;54.88;;;8.90;99.90;;;;;;5051797;28;20033;-75
2022/04/30 05:34:53;;;;;;;67.63;59.88;;;8.90;99.90;;;;;;5049163;28;20366;-75
2022/04/30 05:37:19;;;;;;;64.97;58.42;;;8.90;99.90;;;;;;5053801;28;20045;-77
2022/04/30 05:39:45;;;;;;;63.45;57.00;;;8.90;99.90;;;;;;5053806;28;20025;-76
2022/04/30 05:42:11;;;;;;;63.95;57.33;;;8.90;99.90;;;;;;5052780;28;20405;-75
2022/04/30 05:44:38;;;;;;;65.03;58.63;;;8.90;99.90;;;;;;5050062;28;20029;-75
2022/04/30 05:47:04;;;;;;;62.50;56.28;;;9.00;99.90;;;;;;5031582;28;20038;-78
2022/04/30 05:49:30;;;;;;;64.45;58.20;;;9.00;99.90;;;;;;5040045;28;20033;-76
2022/04/30 05:51:56;;;;;;;63.65;57.70;;;9.00;99.90;;;;;;5048624;28;20052;-81
2022/04/30 05:54:22;;;;;;;63.22;56.78;;;9.10;99.90;;;;;;5051684;28;20496;-76
2022/04/30 05:56:48;;;;;;;64.03;57.40;;;9.00;99.90;;;;;;5048392;28;20031;-75
2022/04/30 05:59:15;;;;;;;63.53;57.67;;;9.00;99.90;;;;;;5050433;28;20578;-77
2022/04/30 06:01:41;;;;;;;63.42;57.42;;;9.00;99.90;;;;;;5044472;28;20036;-76
2022/04/30 06:04:07;;;;;;;62.72;56.95;;;9.00;99.90;;;;;;5042568;28;20029;-76
2022/04/30 06:06:33;;;;;;;61.67;55.90;;;9.00;99.90;;;;;;5053100;28;20024;-77
2022/04/30 06:08:59;;;;;;;59.72;53.47;;;9.00;99.90;;;;;;5056236;28;20041;-77
2022/04/30 06:11:25;;;;;;;58.10;52.58;;;9.00;99.90;;;;;;5050571;28;20029;-77
2022/04/30 06:13:52;;;;;;;59.97;54.30;;;9.00;99.90;;;;;;5053834;28;20036;-76
2022/04/30 06:16:18;;;;;;;61.35;55.50;;;9.10;99.90;;;;;;5050915;28;20028;-75
2022/04/30 06:18:44;;;;;;;61.00;55.05;;;9.00;99.90;;;;;;5045351;28;20063;-76
2022/04/30 06:21:10;;;;;;;56.58;51.63;;;9.00;99.90;;;;;;5044698;28;20025;-74
2022/04/30 06:23:36;;;;;;;58.63;52.63;;;9.00;99.90;;;;;;5033659;28;20049;-74
2022/04/30 06:26:03;;;;;;;58.50;52.92;;;9.00;99.90;;;;;;5028809;28;20036;-77
2022/04/30 06:28:29;;;;;;;59.33;53.22;;;9.00;99.90;;;;;;5023668;28;20052;-75
2022/04/30 06:30:55;;;;;;;55.72;50.83;;;9.00;99.90;;;;;;5025864;28;20033;-78
2022/04/30 06:33:21;;;;;;;56.50;51.08;;;9.00;99.90;;;;;;5032122;28;20471;-75
2022/04/30 06:35:47;;;;;;;58.78;53.17;;;9.00;99.90;;;;;;5036776;28;20037;-76
2022/04/30 06:38:14;;;;;;;57.03;51.60;;;9.10;99.90;;;;;;5036031;28;20367;-75
2022/04/30 06:40:40;;;;;;;54.88;49.53;;;9.10;99.90;;;;;;5036838;28;20044;-76
2022/04/30 06:43:06;;;;;;;54.70;49.22;;;9.10;99.90;;;;;;5033157;28;20474;-76
2022/04/30 06:45:32;;;;;;;54.53;49.13;;;9.10;99.90;;;;;;5028863;28;20049;-75
2022/04/30 06:47:58;;;;;;;56.35;50.60;;;9.20;99.90;;;;;;5040705;28;20037;-81
2022/04/30 06:50:24;;;;;;;53.72;48.90;;;9.20;99.90;;;;;;5038118;28;20052;-75
2022/04/30 06:58:20;;;;;;;52.58;47.30;;;9.10;99.90;;;;;;5027028;28;20045;-75
2022/04/30 07:03:24;;;;;;;49.40;45.00;;;8.90;99.90;;;;;;5029433;28;20474;-77
2022/04/30 07:05:51;;;;;;;45.08;40.88;;;8.90;99.90;;;;;;5034745;28;20037;-77
2022/04/30 07:08:18;;;;;;;46.05;41.08;;;8.90;99.90;;;;;;5035895;28;20048;-76
2022/04/30 07:10:44;;;;;;;44.10;40.00;;;8.90;99.90;;;;;;5019514;28;20025;-75
2022/04/30 07:13:10;;;;;;;48.63;43.97;;;8.90;99.90;;;;;;5037714;28;20045;-76
2022/04/30 07:15:36;;;;;;;47.40;42.03;;;8.90;99.90;;;;;;5037604;28;20030;-78
2022/04/30 07:18:03;;;;;;;44.47;40.63;;;8.90;99.90;;;;;;5032811;28;20104;-78
2022/04/30 07:20:29;;;;;;;46.30;41.60;;;8.90;99.90;;;;;;5031649;28;20033;-77
2022/04/30 07:22:55;;;;;;;44.60;39.78;;;9.00;99.90;;;;;;5030074;28;20394;-76
2022/04/30 07:25:22;;;;;;;41.30;37.45;;;9.00;99.90;;;;;;5029533;28;20057;-76
2022/04/30 07:27:48;;;;;;;42.08;38.53;;;8.90;99.90;;;;;;5048504;28;20029;-77
2022/04/30 07:30:14;;;;;;;46.38;41.55;;;8.90;99.90;;;;;;5051609;28;20410;-76
2022/04/30 07:32:41;;;;;;;44.42;39.58;;;8.90;99.90;;;;;;5052289;28;20040;-76
2022/04/30 07:35:07;;;;;;;42.78;39.13;;;9.00;99.90;;;;;;5048636;28;20045;-76
2022/04/30 07:37:33;;;;;;;42.75;38.35;;;9.00;99.90;;;;;;5057216;28;20045;-77
2022/04/30 07:40:00;;;;;;;42.47;38.72;;;9.00;99.90;;;;;;5063619;28;20450;-82
2022/04/30 07:42:26;;;;;;;42.03;38.08;;;9.00;99.90;;;;;;5063083;28;20033;-80
2022/04/30 07:44:52;;;;;;;43.67;39.90;;;9.00;99.90;;;;;;5069098;28;20041;-77
2022/04/30 07:47:18;;;;;;;43.65;39.53;;;9.10;99.90;;;;;;5043183;28;20029;-77
2022/04/30 07:49:45;;;;;;;45.42;41.10;;;9.00;99.90;;;;;;5050476;28;20030;-76
2022/04/30 07:52:11;;;;;;;43.60;39.40;;;9.10;99.90;;;;;;5047272;28;20331;-77
2022/04/30 07:54:40;;;;;;;40.33;36.42;;;9.10;99.90;;;;;;5034663;28;20045;-76
2022/04/30 07:57:06;;;;;;;40.15;36.30;;;9.00;99.90;;;;;;5051438;28;20041;-77
2022/04/30 07:59:32;;;;;;;41.08;37.00;;;9.00;99.90;;;;;;5042202;28;20044;-76
2022/04/30 08:01:58;;;;;;;40.90;36.97;;;9.00;99.90;;;;;;5054095;28;20029;-82
2022/04/30 08:04:25;;;;;;;44.60;40.15;;;9.10;99.90;;;;;;5053494;28;20044;-77
2022/04/30 08:06:51;;;;;;;43.42;39.42;;;9.20;99.90;;;;;;5059272;28;20029;-78
2022/04/30 08:09:17;;;;;;;44.90;40.55;;;9.20;99.90;;;;;;5046010;28;20627;-78
2022/04/30 08:11:44;;;;;;;41.50;37.85;;;9.30;99.90;;;;;;5049650;28;20025;-78
2022/04/30 08:14:10;;;;;;;39.90;36.53;;;9.20;99.90;;;;;;5032907;28;20039;-78
2022/04/30 08:16:36;;;;;;;41.45;37.58;;;9.20;99.90;;;;;;5051230;28;20036;-79
2022/04/30 08:19:03;;;;;;;40.67;36.38;;;9.20;99.90;;;;;;5048392;28;20032;-78
2022/04/30 08:21:29;;;;;;;37.75;34.47;;;9.20;99.90;;;;;;5051264;28;20036;-78
2022/04/30 08:23:56;;;;;;;39.00;35.08;;;9.10;99.90;;;;;;5035398;28;20045;-78
2022/04/30 08:26:22;;;;;;;39.40;35.58;;;9.10;99.90;;;;;;5031988;28;20048;-77
2022/04/30 08:28:48;;;;;;;40.10;36.63;;;9.00;99.90;;;;;;5029348;28;20045;-79
2022/04/30 08:31:14;;;;;;;39.75;36.20;;;9.10;99.90;;;;;;5035308;28;20025;-78
2022/04/30 08:33:41;;;;;;;42.38;38.40;;;9.20;99.90;;;;;;5034332;28;20061;-79
2022/04/30 08:36:07;;;;;;;42.50;38.33;;;9.20;99.90;;;;;;5034042;28;20048;-77
2022/04/30 08:38:33;;;;;;;39.95;36.10;;;9.20;99.90;;;;;;5000696;28;20053;-76
2022/04/30 08:41:00;;;;;;;39.10;35.38;;;9.20;99.90;;;;;;5030555;28;20052;-78
2022/04/30 08:43:28;;;;;;;39.38;35.78;;;9.10;99.90;;;;;;5035831;28;20029;-78
2022/04/30 08:45:54;;;;;;;40.33;37.00;;;9.20;99.90;;;;;;5032790;28;20041;-78
2022/04/30 08:48:20;;;;;;;39.83;35.78;;;9.20;99.90;;;;;;5027600;28;20049;-77
2022/04/30 08:50:47;;;;;;;36.28;33.00;;;9.00;99.90;;;;;;5033118;28;20044;-78
2022/04/30 08:53:14;;;;;;;37.60;33.92;;;9.00;99.90;;;;;;5019065;28;20038;-78
2022/04/30 08:55:40;;;;;;;36.58;33.13;;;8.90;99.90;;;;;;5032836;28;20041;-79
2022/04/30 08:58:07;;;;;;;36.17;32.38;;;9.00;99.90;;;;;;5028945;28;20041;-78
2022/04/30 09:00:44;;;;;;;34.05;31.05;;;8.90;99.90;;;;;;5026543;28;20095;-78
2022/04/30 09:03:16;;;;;;;33.88;30.88;;;8.90;99.90;;;;;;5032043;28;20045;-79
2022/04/30 09:05:42;;;;;;;36.15;32.85;;;9.00;99.90;;;;;;5032009;28;20056;-78
2022/04/30 09:08:09;;;;;;;34.47;31.42;;;8.90;99.90;;;;;;5035997;28;20077;-78
2022/04/30 09:10:37;;;;;;;35.28;32.08;;;9.00;99.90;;;;;;5025334;28;20026;-79
2022/04/30 09:13:14;;;;;;;36.20;31.95;;;9.10;99.90;;;;;;5033338;28;20033;-79
2022/04/30 09:15:46;;;;;;;32.28;29.55;;;9.00;99.90;;;;;;5029964;28;20033;-78
2022/04/30 09:18:14;;;;;;;31.67;28.98;;;9.00;99.90;;;;;;5033027;28;20033;-78
2022/04/30 09:20:42;;;;;;;35.47;31.80;;;9.10;99.90;;;;;;5010921;28;20046;-77
2022/04/30 09:23:09;;;;;;;31.92;29.20;;;9.20;99.90;;;;;;5031184;28;20053;-78
2022/04/30 09:25:36;;;;;;;30.90;28.08;;;9.20;99.90;;;;;;5030010;28;20053;-78
2022/04/30 09:28:03;;;;;;;31.45;28.52;;;9.20;99.90;;;;;;5028885;28;20379;-78
2022/04/30 09:30:29;;;;;;;29.75;27.02;;;9.10;99.90;;;;;;5025672;28;20037;-77
2022/04/30 09:33:04;;;;;;;31.45;28.52;;;9.10;99.90;;;;;;5031505;28;20478;-80
2022/04/30 09:38:17;;;;;;;31.10;28.02;;;9.20;99.90;;;;;;5037390;28;20402;-88
2022/04/30 09:40:57;;;;;;;29.85;27.13;;;9.30;99.90;;;;;;5031360;28;20032;-84
2022/04/30 09:43:30;;;;;;;31.50;28.58;;;9.30;99.90;;;;;;5022900;28;20033;-86
2022/04/30 09:46:01;;;;;;;31.00;28.17;;;9.20;99.90;;;;;;5014486;28;20033;-85
2022/04/30 09:54:00;;;;;;;29.08;26.10;;;9.20;99.90;;;;;;5028380;28;20041;-85
2022/04/30 09:56:36;;;;;;;30.35;27.70;;;9.20;99.90;;;;;;5023078;28;20034;-83
2022/04/30 09:59:08;;;;;;;28.52;26.00;;;9.30;99.90;;;;;;5031277;28;20482;-83
2022/04/30 10:01:36;;;;;;;27.95;25.52;;;9.20;99.90;;;;;;5027904;28;20041;-81
2022/04/30 10:04:08;;;;;;;29.50;26.80;;;9.10;99.90;;;;;;5031144;28;20036;-82
2022/04/30 10:06:36;;;;;;;27.92;25.05;;;9.20;99.90;;;;;;5022550;28;20029;-81
2022/04/30 10:09:08;;;;;;;31.35;28.25;;;9.10;99.90;;;;;;5029843;28;20038;-83
2022/04/30 10:11:47;;;;;;;30.23;27.17;;;9.00;99.90;;;;;;5035427;28;20033;-84
2022/04/30 10:14:55;;;;;;;31.48;28.65;;;9.00;99.90;;;;;;5035762;28;20029;-81
2022/04/30 10:17:29;;;;;;;31.08;28.27;;;9.10;99.90;;;;;;5010883;28;20068;-83
2022/04/30 10:19:59;;;;;;;33.28;30.25;;;9.10;99.90;;;;;;5013488;28;20049;-87
2022/04/30 10:22:26;;;;;;;31.65;28.98;;;9.20;99.90;;;;;;5021982;28;20561;-82
2022/04/30 10:24:58;;;;;;;31.88;28.98;;;9.20;99.90;;;;;;5040086;28;20041;-82
2022/04/30 10:27:37;;;;;;;28.30;25.80;;;9.10;99.90;;;;;;5044854;28;20075;-81
2022/04/30 10:30:07;;;;;;;28.83;26.17;;;9.00;99.90;;;;;;5050823;28;20036;-82
2022/04/30 10:32:35;;;;;;;29.53;26.53;;;9.00;99.90;;;;;;5051108;28;20029;-81
2022/04/30 10:35:03;;;;;;;30.30;27.10;;;9.00;99.90;;;;;;5043662;28;20024;-81
2022/04/30 10:37:38;;;;;;;28.92;26.23;;;9.00;99.90;;;;;;5053318;28;20497;-81
2022/04/30 10:40:08;;;;;;;26.48;24.02;;;9.00;99.90;;;;;;5028146;28;20049;-83
2022/04/30 10:42:42;;;;;;;23.85;21.73;;;9.00;99.90;;;;;;5051491;28;20041;-82
2022/04/30 10:45:15;;;;;;;25.77;23.35;;;8.90;99.90;;;;;;5053217;28;20029;-84
2022/04/30 10:47:53;;;;;;;24.48;21.83;;;9.00;99.90;;;;;;5052892;28;20040;-83
2022/04/30 10:50:20;;;;;;;24.92;22.15;;;8.90;99.90;;;;;;5047631;28;20041;-81
2022/04/30 10:52:48;;;;;;;22.42;20.40;;;8.80;99.90;;;;;;5049026;28;20029;-81
2022/04/30 10:55:15;;;;;;;24.30;21.90;;;8.90;99.90;;;;;;5051100;28;20037;-80
2022/04/30 10:57:45;;;;;;;23.85;21.63;;;8.90;99.90;;;;;;5050416;28;20052;-80
2022/04/30 11:00:13;;;;;;;22.52;16.40;;;8.90;99.90;;;;;;5049349;28;20055;-81
2022/04/30 11:02:40;;;;;;;22.17;19.90;;;8.90;99.90;;;;;;5045625;28;20394;-82
2022/04/30 11:05:23;;;;;;;25.17;22.73;;;8.90;99.90;;;;;;5049419;28;20025;-81
2022/04/30 11:07:51;;;;;;;24.25;22.02;;;8.90;99.90;;;;;;5033800;28;20072;-80
2022/04/30 11:10:17;;;;;;;24.20;22.10;;;8.90;99.90;;;;;;5044090;28;20040;-81
2022/04/30 11:12:44;;;;;;;24.17;21.98;;;9.00;99.90;;;;;;5048462;28;20041;-82
2022/04/30 11:15:13;;;;;;;23.23;21.08;;;8.90;99.90;;;;;;5049631;28;20036;-80
2022/04/30 11:17:47;;;;;;;22.17;20.38;;;9.00;99.90;;;;;;5052550;28;20032;-82
2022/04/30 11:20:23;;;;;;;24.40;22.23;;;8.90;99.90;;;;;;5053340;28;20060;-81
2022/04/30 11:22:53;;;;;;;25.95;23.40;;;8.90;99.90;;;;;;5049173;28;20048;-82
2022/04/30 11:25:19;;;;;;;27.98;24.05;;;9.00;99.90;;;;;;5054730;28;20475;-82
2022/04/30 11:27:46;;;;;;;24.63;22.52;;;9.00;99.90;;;;;;5055198;28;20446;-80
2022/04/30 11:30:12;;;;;;;23.23;21.15;;;8.90;99.90;;;;;;5054057;28;20044;-84
2022/04/30 11:32:38;;;;;;;23.33;21.25;;;9.00;99.90;;;;;;5049129;28;20032;-81
2022/04/30 11:35:05;;;;;;;23.65;21.63;;;9.00;99.90;;;;;;5055197;28;20025;-81
2022/04/30 11:37:42;;;;;;;24.02;21.95;;;9.00;99.90;;;;;;5051640;28;20029;-81
2022/04/30 11:40:10;;;;;;;25.48;22.98;;;9.10;99.90;;;;;;5048180;28;20037;-80
2022/04/30 11:42:36;;;;;;;22.92;20.83;;;9.00;99.90;;;;;;5054840;28;20029;-80
2022/04/30 11:45:03;;;;;;;23.92;21.80;;;8.80;99.90;;;;;;5048285;28;20466;-80
2022/04/30 11:47:30;;;;;;;23.05;20.80;;;8.80;99.90;;;;;;5048350;28;20478;-82
2022/04/30 11:50:10;;;;;;;19.50;17.85;;;8.80;99.90;;;;;;5050988;28;20075;-81
2022/04/30 11:52:37;;;;;;;19.92;18.23;;;8.70;99.90;;;;;;5052285;28;20029;-81
2022/04/30 11:55:05;;;;;;;20.13;17.13;;;8.70;99.90;;;;;;5049484;28;20470;-83
2022/04/30 11:57:32;;;;;;;17.45;15.95;;;8.70;99.90;;;;;;5054571;28;20476;-82
2022/04/30 11:59:59;;;;;;;22.42;17.73;;;8.70;99.90;;;;;;5047552;28;20044;-82
2022/04/30 12:02:28;;;;;;;21.08;19.02;;;8.60;99.90;;;;;;5054354;28;20033;-81
2022/04/30 12:05:03;;;;;;;22.23;19.88;;;8.70;99.90;;;;;;5050133;28;20025;-80
2022/04/30 12:07:43;;;;;;;19.90;17.90;;;8.70;99.90;;;;;;5044396;28;20033;-80
2022/04/30 12:10:17;;;;;;;18.20;16.33;;;8.80;99.90;;;;;;5053122;28;20339;-81
2022/04/30 12:12:44;;;;;;;21.60;17.88;;;8.80;99.90;;;;;;5053914;28;20584;-81
2022/04/30 12:15:23;;;;;;;19.95;17.98;;;8.90;99.90;;;;;;5047123;28;20052;-80
2022/04/30 12:26:13;;;;;;;17.38;15.98;;;8.90;99.90;;;;;;5044422;28;20036;-77
2022/04/30 12:28:47;;;;;;;20.00;18.00;;;8.90;99.90;;;;;;5054568;28;20025;-78
2022/04/30 12:31:14;;;;;;;19.63;17.60;;;8.90;99.90;;;;;;5052064;28;20354;-79
2022/04/30 12:33:51;;;;;;;18.73;17.00;;;8.80;99.90;;;;;;5044491;28;20466;-77
2022/04/30 12:36:18;;;;;;;20.73;18.95;;;8.80;99.90;;;;;;5055770;28;20052;-77
2022/04/30 12:38:55;;;;;;;22.83;20.55;;;8.80;99.90;;;;;;5045761;28;20367;-78
2022/04/30 12:41:22;;;;;;;19.20;17.60;;;8.90;99.90;;;;;;5024527;28;20041;-79
2022/04/30 12:43:52;;;;;;;19.30;17.70;;;8.90;99.90;;;;;;5048579;28;20036;-80
2022/04/30 12:46:22;;;;;;;21.63;19.58;;;8.90;99.90;;;;;;5036218;28;20037;-79
2022/04/30 12:48:50;;;;;;;21.00;18.98;;;8.90;99.90;;;;;;5054313;28;20060;-79
2022/04/30 12:51:18;;;;;;;20.23;18.52;;;8.90;99.90;;;;;;5052070;28;20024;-80
2022/04/30 12:53:45;;;;;;;22.50;20.40;;;9.00;99.90;;;;;;5054048;28;20056;-79
2022/04/30 12:56:11;;;;;;;21.50;19.27;;;9.10;99.90;;;;;;5053318;28;20024;-80
2022/04/30 12:58:38;;;;;;;20.15;18.15;;;9.10;99.90;;;;;;5048635;28;20037;-79
2022/04/30 13:01:04;;;;;;;21.08;19.20;;;9.00;99.90;;;;;;5051311;28;20032;-80
2022/04/30 13:03:31;;;;;;;20.10;18.35;;;9.00;99.90;;;;;;5048983;28;20048;-81
2022/04/30 13:05:57;;;;;;;25.20;19.27;;;8.90;99.90;;;;;;5044950;28;20036;-80
2022/04/30 13:08:23;;;;;;;21.33;19.30;;;8.90;99.90;;;;;;5052899;28;20032;-79
2022/04/30 13:13:35;;;;;;;21.98;19.95;;;9.00;99.90;;;;;;5046594;28;20036;-80
2022/04/30 13:16:07;;;;;;;20.33;18.30;;;9.00;99.90;;;;;;5052658;28;20025;-91
2022/04/30 13:18:35;;;;;;;23.33;21.00;;;8.90;99.90;;;;;;5053131;28;20033;-80
2022/04/30 13:21:03;;;;;;;22.00;20.00;;;8.90;99.90;;;;;;5047942;28;20486;-84
2022/04/30 13:23:30;;;;;;;23.88;21.63;;;8.90;99.90;;;;;;5051566;28;20378;-80
2022/04/30 13:25:57;;;;;;;24.83;22.08;;;8.90;99.90;;;;;;5052747;28;20381;-80
2022/04/30 13:28:23;;;;;;;24.10;21.85;;;9.10;99.90;;;;;;5047917;28;20044;-80